Sas van Gent, Netherlands
Current Conditions -  °F | °C
As of 3:55 PM on Wednesday 22 Oct 2014 (Local Time) from EHFS Reporting Station
Clear Clear  
Wind Chill: 55°   Ceiling: Unl
Heat Index: 55°   Visibility: 6mi
Dew Point: 45°   Wind: 18mph
Humidity: 67%   Direction: 310°NW
Pressure: 30.18"   Gusts: NA
Location:  51.23°N, 3.8°E
Report Text: EHFS 221355Z AUTO 31016KT 270V340 9999 NSC 13/07 Q1022
Loading
Personal Weather Stations






























Interactive Weather Map
Tropical Storm Tracking
New forecast layout! Learn more

10-Day Weather Forecast

Advertisements
Track Severe Weather on mobile